YBCG

Gold Coast Airport

Gold Coast, Australia
TAF YBCG 151102Z 1512/1612 36007KT 9999 FEW025 FM151400 23005KT 9999 SCT025 FM152300 07010KT 9999 SCT040 FM161000 VRB05KT 9999 SCT030
Issued Valid From Valid To
Nov-15 @ 11:02 UTC
(2 hours ago)
Nov-15 @ 12:00 UTC
(an hour ago)
Nov-16 @ 12:00 UTC
(in 23 hours)
Nov-15 @ 12:00 to Nov-15 @ 14:00
TAF YBCG 151102Z 1512/1612 36007KT 9999 FEW025
Wind Visibility Clouds
360° at 7 knots 10,000+ meters
  • Few at 2,500' AGL
From Nov-15 @ 14:00 to Nov-15 @ 23:00
FM151400 23005KT 9999 SCT025
Wind Visibility Clouds
230° at 5 knots 10,000+ meters
  • Scattered at 2,500' AGL
From Nov-15 @ 23:00 to Nov-16 @ 10:00
FM152300 07010KT 9999 SCT040
Wind Visibility Clouds
70° at 10 knots 10,000+ meters
  • Scattered at 4,000' AGL
From Nov-16 @ 10:00 to Nov-16 @ 12:00
FM161000 VRB05KT 9999 SCT030
Wind Visibility Clouds
Variable at 5 knots 10,000+ meters
  • Scattered at 3,000' AGL
TAF YBCG 151102Z 1512/1612 36007KT 9999 FEW025 FM151400 23005KT 9999 SCT025 FM152300 07010KT 9999 SCT040 FM161000 VRB05KT 9999 SCT030
Issued Nov-15 @ 11:02 UTC
(2 hours ago)
Valid From Nov-15 @ 12:00 UTC
(an hour ago)
Valid To Nov-16 @ 12:00 UTC
(in 23 hours)
Nov-15 @ 12:00 - Nov-15 @ 14:00
Wind Visibility
360° at 7 knots 10,000+ meters
Clouds
  • Few at 2,500' AGL
From Nov-15 @ 14:00 - Nov-15 @ 23:00
Wind Visibility
230° at 5 knots 10,000+ meters
Clouds
  • Scattered at 2,500' AGL
From Nov-15 @ 23:00 - Nov-16 @ 10:00
Wind Visibility
70° at 10 knots 10,000+ meters
Clouds
  • Scattered at 4,000' AGL
From Nov-16 @ 10:00 - Nov-16 @ 12:00
Wind Visibility
Variable at 5 knots 10,000+ meters
Clouds
  • Scattered at 3,000' AGL